createdAt,value
2022-12-23T00:01:33.142Z,93.15
2022-12-23T00:04:01.270Z,93.22
2022-12-23T00:06:29.351Z,93.50
2022-12-23T00:09:00.241Z,93.64
2022-12-23T00:11:29.181Z,93.73
2022-12-23T00:14:21.177Z,93.65
2022-12-23T00:16:51.157Z,94.02
2022-12-23T00:19:19.917Z,94.20
2022-12-23T00:21:48.705Z,94.55
2022-12-23T00:24:16.839Z,94.53
2022-12-23T00:26:44.928Z,94.70
2022-12-23T00:29:13.417Z,94.67
2022-12-23T00:31:41.513Z,94.57
2022-12-23T00:34:12.084Z,94.98
2022-12-23T00:36:41.034Z,94.98
2022-12-23T00:39:31.049Z,95.02
2022-12-23T00:42:18.384Z,95.26
2022-12-23T00:44:46.543Z,95.21
2022-12-23T00:47:34.589Z,95.33
2022-12-23T00:50:02.676Z,95.59
2022-12-23T00:52:30.803Z,95.96
2022-12-23T00:54:58.960Z,95.89
2022-12-23T00:57:27.174Z,96.17
2022-12-23T00:59:55.257Z,96.29
2022-12-23T01:02:42.209Z,96.16
2022-12-23T01:05:30.049Z,96.27
2022-12-23T01:07:58.131Z,96.08
2022-12-23T01:10:26.292Z,96.15
2022-12-23T01:12:54.509Z,96.31
2022-12-23T01:15:22.849Z,96.09
2022-12-23T01:17:50.869Z,96.29
2022-12-23T01:20:19.518Z,96.53
2022-12-23T01:22:47.852Z,96.60
2022-12-23T01:25:16.654Z,96.29
2022-12-23T01:27:44.740Z,96.58
2022-12-23T01:30:12.990Z,96.80
2022-12-23T01:32:41.095Z,96.51
2022-12-23T01:35:09.147Z,96.50
2022-12-23T01:37:37.248Z,96.55
2022-12-23T01:40:06.576Z,96.47
2022-12-23T01:42:44.037Z,96.59
2022-12-23T01:45:16.314Z,96.72
2022-12-23T01:47:57.269Z,96.56
2022-12-23T01:50:51.697Z,96.63
2022-12-23T01:53:23.208Z,96.74
2022-12-23T01:55:57.750Z,96.87
2022-12-23T01:59:00.751Z,96.98
2022-12-23T02:01:49.019Z,96.67
2022-12-23T02:04:21.996Z,96.76
2022-12-23T02:07:10.538Z,97.02
2022-12-23T02:09:40.577Z,97.15
2022-12-23T02:12:27.875Z,97.11
2022-12-23T02:15:15.981Z,97.33
2022-12-23T02:17:53.681Z,97.27
2022-12-23T02:20:43.297Z,97.09
2022-12-23T02:23:23.532Z,97.25
2022-12-23T02:26:16.862Z,97.68
2022-12-23T02:29:29.639Z,97.53
2022-12-23T02:32:31.859Z,97.54
2022-12-23T02:35:02.729Z,97.50
2022-12-23T02:37:34.903Z,97.45
2022-12-23T02:40:25.686Z,97.48
2022-12-23T02:43:04.665Z,97.37
2022-12-23T02:45:36.268Z,97.74
2022-12-23T02:48:12.792Z,97.38
2022-12-23T02:50:43.695Z,97.49
2022-12-23T02:53:26.704Z,97.79
2022-12-23T02:55:57.184Z,97.71
2022-12-23T02:58:31.090Z,97.71
2022-12-23T03:01:01.151Z,97.61
2022-12-23T03:03:29.580Z,97.76
2022-12-23T03:05:58.002Z,97.82
2022-12-23T03:08:31.937Z,97.72
2022-12-23T03:11:17.353Z,97.78
2022-12-23T03:14:04.063Z,98.08
2022-12-23T03:16:38.334Z,97.94
2022-12-23T03:19:12.134Z,97.89
2022-12-23T03:22:04.972Z,97.78
2022-12-23T03:24:44.842Z,98.15
2022-12-23T03:27:18.788Z,97.89
2022-12-23T03:30:05.510Z,98.05
2022-12-23T03:32:40.354Z,98.29
2022-12-23T03:35:11.270Z,98.42
2022-12-23T03:37:44.007Z,98.18
2022-12-23T03:40:39.224Z,98.32
2022-12-23T03:43:20.829Z,98.19
2022-12-23T03:45:54.538Z,98.11
2022-12-23T03:48:43.271Z,98.16
2022-12-23T03:51:17.633Z,98.12
2022-12-23T03:53:52.666Z,98.17
2022-12-23T03:56:35.770Z,98.27
2022-12-23T03:59:12.329Z,98.09
2022-12-23T04:02:06.852Z,98.10
2022-12-23T04:04:43.928Z,98.23
2022-12-23T04:07:40.648Z,98.16
2022-12-23T04:10:10.949Z,98.26
2022-12-23T04:12:40.256Z,97.88
2022-12-23T04:15:13.050Z,98.08
2022-12-23T04:17:41.725Z,97.92
2022-12-23T04:20:10.937Z,98.03
2022-12-23T04:22:39.730Z,97.89
2022-12-23T04:25:08.379Z,98.14
2022-12-23T04:27:36.755Z,97.97
2022-12-23T04:30:08.328Z,98.15
2022-12-23T04:32:36.457Z,97.90
2022-12-23T04:35:05.080Z,97.96
2022-12-23T04:37:33.245Z,97.93
2022-12-23T04:40:01.256Z,97.98
2022-12-23T04:42:29.677Z,97.77
2022-12-23T04:44:57.940Z,97.90
2022-12-23T04:47:26.127Z,97.80
2022-12-23T04:49:54.295Z,97.76
2022-12-23T04:52:22.489Z,97.94
2022-12-23T04:54:50.579Z,98.05
2022-12-23T04:57:18.818Z,97.99
2022-12-23T04:59:46.838Z,97.81
2022-12-23T05:02:15.458Z,97.68
2022-12-23T05:04:43.765Z,97.76
2022-12-23T05:07:11.925Z,97.97
2022-12-23T05:09:39.931Z,97.76
2022-12-23T05:12:08.066Z,98.11
2022-12-23T05:14:36.128Z,98.03
2022-12-23T05:17:07.761Z,97.84
2022-12-23T05:19:36.254Z,97.63
2022-12-23T05:22:04.252Z,97.56
2022-12-23T05:24:32.275Z,98.00
2022-12-23T05:27:00.790Z,97.56
2022-12-23T05:29:29.139Z,97.89
2022-12-23T05:31:58.311Z,97.73
2022-12-23T05:34:26.440Z,97.49
2022-12-23T05:36:54.435Z,97.75
2022-12-23T05:39:22.503Z,97.49
2022-12-23T05:41:50.606Z,97.32
2022-12-23T05:44:18.632Z,97.37
2022-12-23T05:46:46.727Z,97.05
2022-12-23T05:49:14.858Z,97.13
2022-12-23T05:51:42.960Z,96.84
2022-12-23T05:54:11.055Z,96.86
2022-12-23T05:56:39.114Z,96.73
2022-12-23T05:59:09.068Z,97.01
2022-12-23T06:01:37.288Z,96.90
2022-12-23T06:04:05.584Z,96.96
2022-12-23T06:06:34.431Z,97.13
2022-12-23T06:09:02.478Z,97.11
2022-12-23T06:11:30.487Z,97.35
2022-12-23T06:13:58.628Z,97.12
2022-12-23T06:16:26.792Z,97.59
2022-12-23T06:18:56.470Z,97.52
2022-12-23T06:21:25.644Z,97.63
2022-12-23T06:23:53.767Z,97.62
2022-12-23T06:26:21.926Z,97.32
2022-12-23T06:28:50.052Z,97.18
2022-12-23T06:31:18.847Z,97.40
2022-12-23T06:33:47.025Z,97.46
2022-12-23T06:36:15.095Z,97.27
2022-12-23T06:38:43.168Z,96.96
2022-12-23T06:41:11.330Z,96.53
2022-12-23T06:43:40.000Z,96.55
2022-12-23T06:46:08.599Z,96.64
2022-12-23T06:48:36.753Z,96.80
2022-12-23T06:51:05.422Z,96.68
2022-12-23T06:53:33.483Z,96.38
2022-12-23T06:56:03.243Z,96.64
2022-12-23T06:58:31.500Z,97.01
2022-12-23T07:00:59.583Z,96.65
2022-12-23T07:03:27.916Z,96.71
2022-12-23T07:05:56.161Z,96.61
2022-12-23T07:08:24.278Z,96.29
2022-12-23T07:10:59.348Z,96.35
2022-12-23T07:13:28.624Z,96.26
2022-12-23T07:15:56.773Z,96.35
2022-12-23T07:18:25.763Z,96.06
2022-12-23T07:20:53.893Z,96.15
2022-12-23T07:23:22.001Z,96.10
2022-12-23T07:25:50.060Z,96.15
2022-12-23T07:28:18.153Z,96.04
2022-12-23T07:30:46.198Z,96.06
2022-12-23T07:33:15.023Z,96.08
2022-12-23T07:35:43.348Z,96.31
2022-12-23T07:38:12.247Z,96.03
2022-12-23T07:40:49.132Z,96.13
2022-12-23T07:43:17.350Z,96.13
2022-12-23T07:45:45.576Z,96.03
2022-12-23T07:48:13.657Z,96.17
2022-12-23T07:50:44.705Z,96.25
2022-12-23T07:53:12.784Z,96.16
2022-12-23T07:55:41.122Z,96.14
2022-12-23T07:58:09.227Z,96.35
2022-12-23T08:00:37.380Z,96.22
2022-12-23T08:03:06.106Z,96.13
2022-12-23T08:05:34.319Z,96.28
2022-12-23T08:08:02.727Z,96.33
2022-12-23T08:10:31.569Z,96.16
2022-12-23T08:13:02.856Z,96.08
2022-12-23T08:15:30.866Z,96.02
2022-12-23T08:17:58.944Z,96.33
2022-12-23T08:20:27.048Z,96.08
2022-12-23T08:22:55.382Z,96.11
2022-12-23T08:25:23.642Z,95.94
2022-12-23T08:27:52.003Z,96.06
2022-12-23T08:30:21.273Z,95.95
2022-12-23T08:32:49.360Z,96.22
2022-12-23T08:35:17.517Z,96.10
2022-12-23T08:37:45.631Z,95.97
2022-12-23T08:40:14.041Z,96.02
2022-12-23T08:42:42.144Z,96.06
2022-12-23T08:45:10.610Z,96.01
2022-12-23T08:47:38.787Z,96.22
2022-12-23T08:50:07.325Z,96.22
2022-12-23T08:52:35.409Z,95.95
2022-12-23T08:55:04.539Z,96.08
2022-12-23T08:57:34.305Z,96.14
2022-12-23T09:00:02.545Z,96.21
2022-12-23T09:02:33.811Z,96.09
2022-12-23T09:05:02.205Z,96.01
2022-12-23T09:07:30.451Z,96.08
2022-12-23T09:09:58.596Z,96.03
2022-12-23T09:12:26.651Z,96.00
2022-12-23T09:14:54.851Z,96.02
2022-12-23T09:17:23.013Z,95.80
2022-12-23T09:19:53.114Z,95.94
2022-12-23T09:22:21.701Z,95.96
2022-12-23T09:24:50.292Z,95.86
2022-12-23T09:27:18.717Z,95.82
2022-12-23T09:29:46.847Z,96.08
2022-12-23T09:32:15.445Z,96.08
2022-12-23T09:34:43.506Z,96.07
2022-12-23T09:37:13.828Z,95.96
2022-12-23T09:39:41.883Z,95.88
2022-12-23T09:42:24.017Z,95.80
2022-12-23T09:44:56.949Z,95.98
2022-12-23T09:47:28.184Z,95.56
2022-12-23T09:50:10.922Z,95.41
2022-12-23T09:53:19.465Z,95.37
2022-12-23T09:56:02.679Z,95.65
2022-12-23T09:58:33.757Z,95.59
2022-12-23T10:01:50.767Z,95.46
2022-12-23T10:04:18.839Z,95.61
2022-12-23T10:06:56.328Z,95.55
2022-12-23T10:09:28.764Z,95.49
2022-12-23T10:11:57.660Z,95.55
2022-12-23T10:14:32.028Z,95.37
2022-12-23T10:17:16.359Z,95.18
2022-12-23T10:19:47.598Z,95.38
2022-12-23T10:22:30.371Z,95.39
2022-12-23T10:25:01.015Z,95.22
2022-12-23T10:27:39.321Z,95.23
2022-12-23T10:30:34.114Z,94.81
2022-12-23T10:32:59.350Z,94.42
2022-12-23T10:35:46.339Z,94.70
2022-12-23T10:38:40.176Z,94.67
2022-12-23T10:41:17.204Z,94.70
2022-12-23T10:44:13.100Z,94.82
2022-12-23T10:46:50.956Z,94.67
2022-12-23T10:49:43.879Z,94.56
2022-12-23T10:52:23.311Z,94.47
2022-12-23T10:54:53.082Z,94.60
2022-12-23T10:57:22.814Z,94.60
2022-12-23T10:59:50.932Z,94.59
2022-12-23T11:02:47.376Z,94.24
2022-12-23T11:05:26.918Z,94.10
2022-12-23T11:07:55.784Z,94.14
2022-12-23T11:10:28.716Z,94.25
2022-12-23T11:12:56.851Z,94.10
2022-12-23T11:15:38.737Z,93.95
2022-12-23T11:18:12.833Z,94.00
2022-12-23T11:20:45.255Z,93.68
2022-12-23T11:23:31.274Z,93.65
2022-12-23T11:26:03.384Z,93.75
2022-12-23T11:28:34.326Z,93.61
2022-12-23T11:31:08.196Z,93.45
2022-12-23T11:33:40.010Z,93.52
2022-12-23T11:36:13.735Z,93.52
2022-12-23T11:38:52.511Z,93.44
2022-12-23T11:41:23.786Z,93.63
2022-12-23T11:44:00.590Z,93.55
2022-12-23T11:46:32.734Z,93.38
2022-12-23T11:49:13.569Z,93.42
2022-12-23T11:51:43.035Z,93.36
2022-12-23T11:54:20.552Z,93.30
2022-12-23T11:56:51.665Z,93.45
2022-12-23T11:59:39.014Z,93.51
2022-12-23T12:02:26.208Z,93.58
2022-12-23T12:05:06.306Z,93.78
2022-12-23T12:07:35.813Z,93.71
2022-12-23T12:10:05.181Z,93.65
2022-12-23T12:12:33.485Z,93.83
2022-12-23T12:15:01.696Z,93.79
2022-12-23T12:17:58.004Z,93.78
2022-12-23T12:20:37.683Z,93.91
2022-12-23T12:23:11.724Z,94.03
2022-12-23T12:25:45.112Z,93.96
2022-12-23T12:28:26.130Z,94.02
2022-12-23T12:31:03.593Z,94.16
2022-12-23T12:34:05.896Z,94.18
2022-12-23T12:36:45.734Z,94.39
2022-12-23T12:39:21.652Z,94.52
2022-12-23T12:42:05.049Z,94.47
2022-12-23T12:44:46.166Z,94.47
2022-12-23T12:50:28.127Z,94.56
2022-12-23T12:53:09.249Z,94.53
2022-12-23T12:55:42.588Z,94.63
2022-12-23T12:58:19.551Z,94.81
2022-12-23T13:01:03.574Z,94.79
2022-12-23T13:03:46.640Z,94.96
2022-12-23T13:06:46.970Z,94.96
2022-12-23T13:09:29.207Z,95.04
2022-12-23T13:12:14.802Z,95.19
2022-12-23T13:14:57.983Z,95.25
2022-12-23T13:17:33.748Z,95.28
2022-12-23T13:20:24.363Z,95.50
2022-12-23T13:23:20.738Z,95.48
2022-12-23T13:25:58.502Z,95.45
2022-12-23T13:28:37.314Z,95.48
2022-12-23T13:31:24.628Z,95.58
2022-12-23T13:34:16.541Z,95.52
2022-12-23T13:37:01.166Z,95.56
2022-12-23T13:39:43.508Z,95.63
2022-12-23T13:42:17.050Z,95.71
2022-12-23T13:44:45.710Z,95.61
2022-12-23T13:47:32.680Z,95.63
2022-12-23T13:50:22.766Z,95.79
2022-12-23T13:53:12.080Z,95.72
2022-12-23T13:55:52.984Z,95.78
2022-12-23T13:58:24.281Z,95.81
2022-12-23T14:01:21.030Z,95.74
2022-12-23T14:03:51.021Z,95.71
2022-12-23T14:06:25.015Z,95.83
2022-12-23T14:08:55.267Z,95.91
2022-12-23T14:11:28.774Z,95.94
2022-12-23T14:14:00.573Z,95.91
2022-12-23T14:16:31.538Z,96.08
2022-12-23T14:19:20.573Z,96.00
2022-12-23T14:22:19.806Z,95.96
2022-12-23T14:25:12.197Z,96.24
2022-12-23T14:28:10.997Z,96.21
2022-12-23T14:30:45.083Z,96.32
2022-12-23T14:33:26.734Z,96.24
2022-12-23T14:36:13.628Z,96.34
2022-12-23T14:38:41.723Z,96.46
2022-12-23T14:41:38.920Z,96.54
2022-12-23T14:44:38.353Z,96.70
2022-12-23T14:47:28.200Z,96.66
2022-12-23T14:49:56.657Z,96.77
2022-12-23T14:52:49.535Z,96.76
2022-12-23T14:55:32.596Z,96.79
2022-12-23T14:58:12.990Z,96.71
2022-12-23T15:00:50.926Z,96.80
2022-12-23T15:03:20.477Z,96.82
2022-12-23T15:05:51.156Z,96.86
2022-12-23T15:08:28.110Z,96.88
2022-12-23T15:10:57.698Z,97.10
2022-12-23T15:13:28.873Z,97.17
2022-12-23T15:16:01.660Z,97.16
2022-12-23T15:18:30.706Z,97.17
2022-12-23T15:21:10.685Z,97.17
2022-12-23T15:23:48.252Z,97.25
2022-12-23T15:26:16.687Z,97.11
2022-12-23T15:28:45.023Z,97.12
2022-12-23T15:31:27.479Z,97.04
2022-12-23T15:34:06.256Z,97.06
2022-12-23T15:36:37.548Z,97.33
2022-12-23T15:39:19.084Z,97.29
2022-12-23T15:41:48.405Z,97.35
2022-12-23T15:44:25.162Z,97.33
2022-12-23T15:46:53.325Z,97.34
2022-12-23T15:49:21.949Z,97.57
2022-12-23T15:52:07.862Z,97.49
2022-12-23T15:54:45.696Z,97.51
2022-12-23T15:57:20.884Z,97.49
2022-12-23T15:59:51.147Z,97.41
2022-12-23T16:03:00.527Z,97.56
2022-12-23T16:05:37.667Z,97.56
2022-12-23T16:08:28.300Z,97.67
2022-12-23T16:10:57.764Z,97.66
2022-12-23T16:13:25.833Z,97.76
2022-12-23T16:15:55.160Z,97.75
2022-12-23T16:18:32.903Z,97.64
2022-12-23T16:21:04.387Z,97.80
2022-12-23T16:23:36.234Z,97.80
2022-12-23T16:26:05.071Z,97.80
2022-12-23T16:28:42.306Z,97.79
2022-12-23T16:31:11.480Z,97.85
2022-12-23T16:33:49.489Z,97.89
2022-12-23T16:36:22.291Z,98.06
2022-12-23T16:38:52.608Z,97.82
2022-12-23T16:41:20.855Z,97.93
2022-12-23T16:43:52.552Z,97.93
2022-12-23T16:46:23.333Z,97.89
2022-12-23T16:48:58.625Z,97.81
2022-12-23T16:51:28.548Z,97.85
2022-12-23T16:53:57.753Z,97.87
2022-12-23T16:56:31.614Z,97.87
2022-12-23T16:58:59.680Z,97.87
2022-12-23T17:01:34.591Z,97.89
2022-12-23T17:04:03.258Z,97.81
2022-12-23T17:06:31.576Z,97.74
2022-12-23T17:08:59.738Z,97.74
2022-12-23T17:11:41.948Z,97.75
2022-12-23T17:14:21.787Z,97.95
2022-12-23T17:16:50.794Z,97.90
2022-12-23T17:19:27.139Z,97.82
2022-12-23T17:22:00.991Z,97.94
2022-12-23T17:24:29.238Z,97.86
2022-12-23T17:26:57.714Z,97.74
2022-12-23T17:29:25.807Z,97.83
2022-12-23T17:31:55.076Z,97.87
2022-12-23T17:34:24.889Z,97.80
2022-12-23T17:36:53.251Z,97.99
2022-12-23T17:39:22.182Z,97.85
2022-12-23T17:41:50.468Z,97.88
2022-12-23T17:44:19.813Z,97.87
2022-12-23T17:46:48.195Z,97.87
2022-12-23T17:49:16.280Z,97.81
2022-12-23T17:51:44.465Z,97.98
2022-12-23T17:54:30.887Z,97.76
2022-12-23T17:56:59.284Z,97.82
2022-12-23T17:59:27.443Z,97.82
2022-12-23T18:01:55.882Z,97.89
2022-12-23T18:04:24.156Z,97.75
2022-12-23T18:06:52.198Z,97.85
2022-12-23T18:09:21.515Z,97.82
2022-12-23T18:11:49.708Z,97.73
2022-12-23T18:14:24.000Z,97.63
2022-12-23T18:16:52.478Z,97.64
2022-12-23T18:19:21.082Z,97.71
2022-12-23T18:21:50.606Z,97.75
2022-12-23T18:24:18.799Z,97.77
2022-12-23T18:26:47.849Z,97.63
2022-12-23T18:29:16.266Z,97.71
2022-12-23T18:31:51.370Z,97.64
2022-12-23T18:34:21.185Z,97.68
2022-12-23T18:36:51.823Z,97.63
2022-12-23T18:39:21.265Z,97.71
2022-12-23T18:41:49.434Z,97.76
2022-12-23T18:44:20.584Z,97.76
2022-12-23T18:46:49.434Z,97.59
2022-12-23T18:49:18.123Z,97.57
2022-12-23T18:51:46.258Z,97.52
2022-12-23T18:54:16.017Z,97.69
2022-12-23T18:56:44.460Z,97.46
2022-12-23T18:59:21.348Z,97.47
2022-12-23T19:01:56.649Z,97.53
2022-12-23T19:04:25.867Z,97.39
2022-12-23T19:06:55.647Z,97.43
2022-12-23T19:09:25.065Z,97.35
2022-12-23T19:11:54.167Z,97.35
2022-12-23T19:14:22.973Z,97.45
2022-12-23T19:16:52.637Z,97.48
2022-12-23T19:19:21.698Z,97.46
2022-12-23T19:21:49.888Z,97.48
2022-12-23T19:24:18.241Z,97.37
2022-12-23T19:26:48.307Z,97.41
2022-12-23T19:29:17.044Z,97.34
2022-12-23T19:31:45.275Z,97.31
2022-12-23T19:34:16.390Z,97.24
2022-12-23T19:36:44.724Z,97.26
2022-12-23T19:39:16.765Z,97.19
2022-12-23T19:41:45.389Z,97.12
2022-12-23T19:44:14.071Z,97.13
2022-12-23T19:46:42.900Z,97.23
2022-12-23T19:49:17.472Z,97.09
2022-12-23T19:51:49.128Z,97.11
2022-12-23T19:54:18.932Z,97.00
2022-12-23T19:56:50.528Z,97.00
2022-12-23T19:59:23.071Z,96.89
2022-12-23T20:01:51.558Z,97.02
2022-12-23T20:04:25.012Z,96.72
2022-12-23T20:06:53.091Z,96.94
2022-12-23T20:09:21.547Z,96.77
2022-12-23T20:11:50.142Z,96.70
2022-12-23T20:14:21.790Z,96.69
2022-12-23T20:16:50.401Z,96.61
2022-12-23T20:19:18.989Z,96.63
2022-12-23T20:21:47.197Z,96.49
2022-12-23T20:24:16.171Z,96.50
2022-12-23T20:26:45.173Z,96.48
2022-12-23T20:29:13.500Z,96.54
2022-12-23T20:31:41.786Z,96.55
2022-12-23T20:34:15.302Z,96.55
2022-12-23T20:36:43.576Z,96.44
2022-12-23T20:39:11.798Z,96.31
2022-12-23T20:41:42.625Z,96.45
2022-12-23T20:46:58.794Z,96.34
2022-12-23T20:49:26.961Z,96.55
2022-12-23T20:51:55.187Z,96.50
2022-12-23T20:54:29.805Z,96.50
2022-12-23T20:57:02.141Z,96.65
2022-12-23T20:59:30.237Z,96.68
2022-12-23T21:01:59.486Z,96.42
2022-12-23T21:04:27.889Z,96.33
2022-12-23T21:06:56.458Z,96.43
2022-12-23T21:09:24.544Z,96.27
2022-12-23T21:11:52.569Z,96.39
2022-12-23T21:14:20.975Z,96.36
2022-12-23T21:16:49.811Z,96.33
2022-12-23T21:19:23.000Z,95.81
2022-12-23T21:21:52.353Z,95.85
2022-12-23T21:24:21.053Z,95.78
2022-12-23T21:26:56.304Z,95.91
2022-12-23T21:29:25.683Z,95.90
2022-12-23T21:31:55.324Z,95.86
2022-12-23T21:34:23.826Z,96.05
2022-12-23T21:36:51.981Z,96.07
2022-12-23T21:39:20.104Z,96.14
2022-12-23T21:41:51.157Z,95.90
2022-12-23T21:44:19.526Z,95.89
2022-12-23T21:46:49.964Z,95.62
2022-12-23T21:49:19.122Z,95.65
2022-12-23T21:51:47.221Z,95.55
2022-12-23T21:54:15.454Z,95.59
2022-12-23T21:56:43.660Z,95.55
2022-12-23T21:59:14.397Z,95.59
2022-12-23T22:01:43.819Z,95.67
2022-12-23T22:04:12.509Z,95.64
2022-12-23T22:06:44.134Z,95.63
2022-12-23T22:09:16.029Z,95.20
2022-12-23T22:11:44.731Z,95.48
2022-12-23T22:14:15.179Z,95.46
2022-12-23T22:16:43.555Z,95.33
2022-12-23T22:19:12.560Z,95.36
2022-12-23T22:21:42.932Z,95.33
2022-12-23T22:24:11.824Z,95.53
2022-12-23T22:26:40.830Z,95.30
2022-12-23T22:29:11.543Z,95.42
2022-12-23T22:31:44.743Z,95.32
2022-12-23T22:34:18.178Z,95.21
2022-12-23T22:36:47.226Z,95.03
2022-12-23T22:39:20.587Z,95.34
2022-12-23T22:41:51.251Z,95.22
2022-12-23T22:44:19.995Z,95.18
2022-12-23T22:46:48.408Z,94.88
2022-12-23T22:49:17.234Z,95.35
2022-12-23T22:51:45.635Z,95.41
2022-12-23T22:54:14.391Z,95.24
2022-12-23T22:56:42.643Z,95.13
2022-12-23T22:59:20.197Z,94.94
2022-12-23T23:01:49.320Z,94.79
2022-12-23T23:04:17.506Z,94.88
2022-12-23T23:06:45.628Z,94.62
2022-12-23T23:09:18.433Z,94.64
2022-12-23T23:11:47.436Z,94.68
2022-12-23T23:14:16.319Z,94.68
2022-12-23T23:16:44.614Z,94.43
2022-12-23T23:19:14.404Z,94.41
2022-12-23T23:21:42.603Z,94.20
2022-12-23T23:24:12.063Z,94.29
2022-12-23T23:26:40.394Z,94.13
2022-12-23T23:29:08.661Z,94.17
2022-12-23T23:31:42.280Z,94.17
2022-12-23T23:34:12.540Z,94.18
2022-12-23T23:36:41.279Z,94.19
2022-12-23T23:39:12.259Z,94.13
2022-12-23T23:41:41.480Z,94.07
2022-12-23T23:44:10.852Z,94.06
2022-12-23T23:46:39.422Z,93.85
2022-12-23T23:49:07.692Z,94.04
2022-12-23T23:51:35.888Z,93.93
2022-12-23T23:54:04.133Z,93.83
2022-12-23T23:56:38.101Z,93.89
2022-12-23T23:59:08.948Z,93.82
